createdAt,value
2018-06-29T00:02:06.838Z,21.90
2018-06-29T00:04:34.020Z,21.90
2018-06-29T00:07:01.188Z,22.00
2018-06-29T00:09:28.351Z,21.90
2018-06-29T00:11:55.512Z,21.90
2018-06-29T00:14:22.689Z,21.80
2018-06-29T00:16:49.848Z,21.80
2018-06-29T00:19:17.045Z,21.70
2018-06-29T00:21:44.237Z,21.70
2018-06-29T00:24:11.417Z,21.60
2018-06-29T00:26:38.608Z,21.60
2018-06-29T00:29:05.800Z,21.60
2018-06-29T00:31:33.013Z,21.60
2018-06-29T00:34:00.172Z,21.80
2018-06-29T00:36:27.480Z,21.90
2018-06-29T00:38:54.640Z,21.80
2018-06-29T00:41:21.808Z,21.70
2018-06-29T00:43:49.017Z,21.60
2018-06-29T00:46:22.952Z,21.60
2018-06-29T00:48:50.157Z,21.70
2018-06-29T00:51:17.311Z,21.70
2018-06-29T00:53:44.489Z,21.80
2018-06-29T00:56:11.673Z,21.80
2018-06-29T00:58:38.854Z,21.70
2018-06-29T01:01:06.040Z,21.60
2018-06-29T01:03:33.248Z,21.50
2018-06-29T01:06:00.425Z,21.40
2018-06-29T01:08:27.625Z,21.40
2018-06-29T01:13:29.212Z,21.50
2018-06-29T01:15:56.395Z,21.40
2018-06-29T01:18:23.592Z,21.30
2018-06-29T01:20:50.779Z,21.50
2018-06-29T01:23:17.970Z,21.30
2018-06-29T01:25:45.148Z,21.30
2018-06-29T01:28:12.364Z,21.30
2018-06-29T01:30:39.752Z,21.30
2018-06-29T01:33:07.193Z,21.30
2018-06-29T01:35:34.392Z,21.30
2018-06-29T01:38:01.574Z,21.30
2018-06-29T01:40:28.754Z,21.20
2018-06-29T01:42:55.913Z,21.20
2018-06-29T01:45:23.091Z,21.30
2018-06-29T01:47:50.279Z,21.30
2018-06-29T01:50:17.454Z,21.20
2018-06-29T01:52:44.612Z,21.20
2018-06-29T01:55:11.813Z,21.20
2018-06-29T01:57:38.994Z,21.20
2018-06-29T02:00:06.180Z,21.20
2018-06-29T02:02:33.342Z,21.10
2018-06-29T02:05:00.508Z,21.10
2018-06-29T02:07:27.660Z,21.10
2018-06-29T02:09:54.838Z,21.10
2018-06-29T02:12:22.574Z,21.10
2018-06-29T02:14:49.773Z,21.20
2018-06-29T02:17:17.033Z,21.20
2018-06-29T02:19:44.186Z,21.10
2018-06-29T02:22:11.350Z,21.20
2018-06-29T02:24:38.575Z,21.10
2018-06-29T02:27:05.881Z,21.10
2018-06-29T02:29:33.084Z,21.10
2018-06-29T02:32:00.260Z,21.10
2018-06-29T02:34:27.430Z,21.20
2018-06-29T02:36:54.621Z,21.10
2018-06-29T02:39:21.821Z,21.20
2018-06-29T02:41:49.000Z,21.20
2018-06-29T02:44:16.168Z,21.20
2018-06-29T02:46:43.340Z,21.10
2018-06-29T02:49:10.514Z,21.20
2018-06-29T02:51:37.677Z,21.20
2018-06-29T02:54:04.881Z,21.20
2018-06-29T02:56:32.125Z,21.20
2018-06-29T02:58:59.375Z,21.20
2018-06-29T03:01:26.565Z,21.20
2018-06-29T03:03:53.732Z,21.20
2018-06-29T03:08:54.921Z,21.10
2018-06-29T03:11:22.101Z,21.00
2018-06-29T03:13:49.281Z,21.00
2018-06-29T03:16:16.458Z,21.00
2018-06-29T03:18:43.667Z,21.00
2018-06-29T03:21:10.853Z,21.10
2018-06-29T03:23:38.012Z,21.10
2018-06-29T03:26:05.233Z,21.20
2018-06-29T03:28:32.418Z,21.20
2018-06-29T03:30:59.603Z,21.20
2018-06-29T03:33:26.776Z,21.20
2018-06-29T03:35:53.932Z,21.30
2018-06-29T03:38:21.100Z,21.40
2018-06-29T03:40:48.280Z,21.40
2018-06-29T03:45:42.632Z,21.40
2018-06-29T03:48:09.806Z,21.30
2018-06-29T03:50:36.996Z,21.30
2018-06-29T03:53:04.186Z,21.30
2018-06-29T03:55:31.348Z,21.30
2018-06-29T03:57:58.545Z,21.40
2018-06-29T04:00:25.704Z,21.40
2018-06-29T04:02:52.888Z,21.40
2018-06-29T04:05:20.040Z,21.40
2018-06-29T04:07:47.212Z,21.40
2018-06-29T04:10:14.378Z,21.30
2018-06-29T04:12:41.549Z,21.30
2018-06-29T04:15:08.772Z,21.30
2018-06-29T04:17:35.950Z,21.30
2018-06-29T04:20:03.526Z,21.30
2018-06-29T04:22:30.687Z,21.40
2018-06-29T04:25:00.235Z,21.30
2018-06-29T04:27:27.488Z,21.40
2018-06-29T04:29:54.664Z,21.30
2018-06-29T04:32:21.838Z,21.30
2018-06-29T04:34:49.059Z,21.40
2018-06-29T04:37:16.229Z,21.40
2018-06-29T04:39:43.424Z,21.40
2018-06-29T04:42:10.605Z,21.30
2018-06-29T04:44:37.780Z,21.30
2018-06-29T04:47:04.971Z,21.30
2018-06-29T04:52:06.568Z,21.30
2018-06-29T04:54:33.748Z,21.20
2018-06-29T04:57:00.953Z,21.20
2018-06-29T04:59:28.160Z,21.20
2018-06-29T05:01:55.337Z,21.30
2018-06-29T05:04:22.519Z,21.20
2018-06-29T05:06:49.705Z,21.20
2018-06-29T05:09:16.938Z,21.20
2018-06-29T05:11:44.210Z,21.20
2018-06-29T05:14:11.385Z,21.20
2018-06-29T05:16:38.584Z,21.20
2018-06-29T05:19:05.783Z,21.20
2018-06-29T05:21:33.098Z,21.20
2018-06-29T05:24:00.260Z,21.10
2018-06-29T05:26:27.468Z,21.10
2018-06-29T05:28:54.656Z,21.20
2018-06-29T05:31:21.854Z,21.20
2018-06-29T05:33:49.024Z,21.30
2018-06-29T05:36:16.229Z,21.20
2018-06-29T05:38:43.409Z,21.20
2018-06-29T05:41:10.605Z,21.30
2018-06-29T05:43:37.776Z,21.30
2018-06-29T05:46:05.168Z,21.30
2018-06-29T05:48:32.420Z,21.30
2018-06-29T05:50:59.661Z,21.30
2018-06-29T05:53:26.819Z,21.30
2018-06-29T05:55:54.000Z,21.20
2018-06-29T05:58:21.160Z,21.30
2018-06-29T06:00:48.656Z,21.30
2018-06-29T06:03:15.871Z,21.20
2018-06-29T06:05:43.088Z,21.20
2018-06-29T06:08:10.256Z,21.20
2018-06-29T06:10:37.560Z,21.30
2018-06-29T06:13:04.735Z,21.30
2018-06-29T06:15:31.952Z,21.30
2018-06-29T06:17:59.146Z,21.40
2018-06-29T06:22:53.524Z,21.30
2018-06-29T06:25:20.736Z,21.40
2018-06-29T06:27:47.936Z,21.50
2018-06-29T06:30:15.113Z,21.50
2018-06-29T06:32:42.294Z,21.50
2018-06-29T06:35:09.473Z,21.60
2018-06-29T06:37:36.661Z,21.60
2018-06-29T06:40:04.136Z,21.70
2018-06-29T06:42:31.316Z,21.70
2018-06-29T06:44:58.486Z,21.80
2018-06-29T06:47:25.675Z,21.90
2018-06-29T06:49:52.850Z,21.90
2018-06-29T06:52:20.025Z,21.90
2018-06-29T06:54:47.190Z,21.90
2018-06-29T06:57:14.376Z,21.90
2018-06-29T06:59:41.541Z,22.00
2018-06-29T07:02:08.728Z,22.10
2018-06-29T07:04:35.901Z,22.10
2018-06-29T07:07:03.151Z,22.10
2018-06-29T07:09:30.328Z,22.10
2018-06-29T07:11:57.508Z,22.10
2018-06-29T07:14:24.689Z,22.20
2018-06-29T07:16:51.885Z,22.20
2018-06-29T07:19:19.052Z,22.30
2018-06-29T07:21:46.244Z,22.30
2018-06-29T07:24:13.444Z,22.30
2018-06-29T07:26:40.646Z,22.30
2018-06-29T07:29:07.912Z,22.30
2018-06-29T07:31:35.368Z,22.40
2018-06-29T07:34:02.568Z,22.50
2018-06-29T07:36:29.745Z,22.70
2018-06-29T07:38:56.924Z,22.80
2018-06-29T07:41:24.097Z,22.90
2018-06-29T07:43:51.284Z,23.10
2018-06-29T07:46:18.455Z,23.20
2018-06-29T07:48:45.664Z,23.40
2018-06-29T07:51:12.869Z,23.50
2018-06-29T07:53:40.073Z,23.70
2018-06-29T07:56:07.262Z,23.70
2018-06-29T07:58:34.475Z,23.60
2018-06-29T08:01:02.544Z,23.70
2018-06-29T08:03:31.141Z,23.60
2018-06-29T08:05:58.304Z,23.60
2018-06-29T08:08:26.376Z,23.60
2018-06-29T08:10:53.703Z,23.50
2018-06-29T08:13:21.128Z,23.40
2018-06-29T08:15:48.588Z,23.40
2018-06-29T08:18:15.868Z,23.50
2018-06-29T08:20:44.059Z,23.40
2018-06-29T08:23:11.244Z,23.40
2018-06-29T08:25:38.428Z,23.60
2018-06-29T08:28:05.621Z,23.70
2018-06-29T08:30:32.890Z,23.90
2018-06-29T08:33:00.233Z,24.10
2018-06-29T08:35:27.437Z,24.30
2018-06-29T08:37:54.592Z,24.50
2018-06-29T08:40:21.833Z,24.60
2018-06-29T08:42:49.032Z,24.80
2018-06-29T08:45:16.323Z,25.20
2018-06-29T08:47:43.497Z,25.90
2018-06-29T08:50:10.863Z,26.50
2018-06-29T08:52:38.032Z,27.00
2018-06-29T08:55:05.257Z,27.50
2018-06-29T08:57:32.468Z,27.90
2018-06-29T08:59:59.677Z,28.00
2018-06-29T09:02:26.840Z,28.20
2018-06-29T09:04:54.073Z,28.40
2018-06-29T09:07:21.212Z,28.70
2018-06-29T09:09:48.407Z,28.90
2018-06-29T09:12:15.576Z,29.10
2018-06-29T09:14:42.736Z,29.20
2018-06-29T09:17:09.920Z,29.40
2018-06-29T09:19:37.093Z,29.70
2018-06-29T09:22:04.289Z,29.90
2018-06-29T09:27:22.109Z,30.20
2018-06-29T09:29:49.331Z,30.30
2018-06-29T09:32:16.524Z,30.30
2018-06-29T09:34:43.789Z,30.40
2018-06-29T09:37:10.962Z,30.80
2018-06-29T09:39:38.149Z,30.90
2018-06-29T09:42:05.366Z,31.00
2018-06-29T09:44:32.712Z,31.10
2018-06-29T09:46:59.897Z,31.10
2018-06-29T09:49:27.064Z,31.10
2018-06-29T09:51:54.402Z,31.20
2018-06-29T09:54:21.652Z,31.30
2018-06-29T09:56:48.818Z,31.50
2018-06-29T09:59:15.993Z,31.60
2018-06-29T10:01:43.173Z,31.80
2018-06-29T10:04:10.339Z,31.80
2018-06-29T10:06:37.550Z,31.80
2018-06-29T10:09:06.687Z,31.90
2018-06-29T10:11:33.894Z,32.00
2018-06-29T10:14:01.126Z,32.10
2018-06-29T10:16:28.264Z,32.40
2018-06-29T10:18:55.428Z,32.60
2018-06-29T10:21:22.624Z,32.80
2018-06-29T10:23:49.790Z,32.90
2018-06-29T10:26:16.977Z,32.90
2018-06-29T10:28:44.178Z,32.80
2018-06-29T10:31:11.345Z,32.80
2018-06-29T10:33:38.516Z,32.90
2018-06-29T10:36:05.710Z,32.90
2018-06-29T10:38:32.875Z,33.00
2018-06-29T10:41:00.073Z,33.20
2018-06-29T10:43:27.397Z,33.20
2018-06-29T10:45:54.577Z,33.00
2018-06-29T10:48:21.745Z,33.00
2018-06-29T10:50:48.911Z,33.10
2018-06-29T10:53:16.084Z,33.00
2018-06-29T10:55:43.260Z,33.10
2018-06-29T10:58:10.445Z,33.20
2018-06-29T11:00:37.601Z,33.10
2018-06-29T11:03:04.796Z,33.10
2018-06-29T11:05:31.985Z,33.20
2018-06-29T11:07:59.141Z,33.10
2018-06-29T11:10:26.321Z,33.10
2018-06-29T11:12:53.614Z,33.10
2018-06-29T11:15:20.797Z,33.00
2018-06-29T11:17:47.964Z,33.00
2018-06-29T11:20:15.136Z,33.10
2018-06-29T11:22:42.335Z,33.10
2018-06-29T11:25:09.484Z,33.10
2018-06-29T11:27:36.665Z,33.10
2018-06-29T11:30:04.077Z,32.90
2018-06-29T11:32:31.257Z,32.80
2018-06-29T11:34:58.695Z,32.80
2018-06-29T11:37:26.171Z,32.90
2018-06-29T11:39:53.344Z,32.80
2018-06-29T11:42:20.652Z,32.80
2018-06-29T11:44:47.830Z,32.80
2018-06-29T11:47:15.018Z,32.80
2018-06-29T11:49:42.201Z,32.80
2018-06-29T11:52:09.395Z,32.80
2018-06-29T11:54:36.560Z,32.70
2018-06-29T11:57:03.869Z,32.70
2018-06-29T11:59:31.069Z,32.70
2018-06-29T12:04:25.425Z,32.70
2018-06-29T12:06:52.742Z,32.80
2018-06-29T12:09:19.785Z,32.80
2018-06-29T12:11:46.948Z,32.80
2018-06-29T12:14:14.133Z,32.80
2018-06-29T12:16:41.309Z,32.80
2018-06-29T12:19:08.478Z,32.90
2018-06-29T12:21:35.802Z,32.90
2018-06-29T12:24:02.968Z,32.90
2018-06-29T12:26:30.181Z,33.10
2018-06-29T12:28:57.343Z,32.90
2018-06-29T12:31:24.500Z,32.50
2018-06-29T12:33:51.821Z,32.50
2018-06-29T12:36:19.025Z,32.30
2018-06-29T12:38:46.205Z,31.80
2018-06-29T12:41:13.434Z,31.20
2018-06-29T12:43:40.805Z,30.90
2018-06-29T12:46:08.014Z,30.90
2018-06-29T12:48:35.302Z,31.20
2018-06-29T12:51:02.495Z,31.70
2018-06-29T12:53:36.500Z,32.00
2018-06-29T12:56:03.693Z,32.30
2018-06-29T12:58:30.922Z,32.40
2018-06-29T13:00:58.057Z,32.50
2018-06-29T13:03:25.213Z,32.50
2018-06-29T13:05:52.381Z,32.70
2018-06-29T13:08:19.591Z,32.70
2018-06-29T13:10:46.790Z,32.80
2018-06-29T13:13:14.000Z,32.50
2018-06-29T13:15:41.181Z,32.30
2018-06-29T13:18:08.345Z,32.00
2018-06-29T13:20:35.505Z,31.70
2018-06-29T13:23:02.841Z,31.50
2018-06-29T13:25:30.049Z,31.30
2018-06-29T13:27:57.212Z,31.00
2018-06-29T13:30:24.390Z,31.00
2018-06-29T13:32:51.565Z,31.20
2018-06-29T13:35:18.724Z,31.40
2018-06-29T13:37:45.933Z,31.30
2018-06-29T13:40:13.133Z,31.00
2018-06-29T13:42:40.309Z,30.90
2018-06-29T13:45:07.478Z,31.00
2018-06-29T13:47:34.665Z,31.20
2018-06-29T13:50:01.890Z,31.30
2018-06-29T13:52:29.064Z,31.40
2018-06-29T13:54:56.276Z,31.40
2018-06-29T13:57:23.449Z,31.10
2018-06-29T13:59:50.625Z,30.80
2018-06-29T14:02:17.798Z,30.70
2018-06-29T14:04:44.958Z,30.80
2018-06-29T14:07:12.136Z,30.90
2018-06-29T14:09:39.280Z,31.20
2018-06-29T14:12:06.469Z,31.30
2018-06-29T14:14:33.665Z,31.40
2018-06-29T14:17:00.853Z,31.50
2018-06-29T14:19:28.024Z,31.60
2018-06-29T14:21:55.195Z,31.70
2018-06-29T14:24:22.361Z,31.70
2018-06-29T14:26:49.525Z,31.40
2018-06-29T14:29:16.683Z,31.10
2018-06-29T14:31:43.882Z,30.80
2018-06-29T14:34:11.070Z,30.80
2018-06-29T14:36:38.251Z,30.80
2018-06-29T14:39:07.422Z,30.80
2018-06-29T14:41:34.592Z,30.90
2018-06-29T14:44:02.021Z,30.80
2018-06-29T14:46:29.212Z,31.10
2018-06-29T14:48:56.361Z,31.20
2018-06-29T14:51:23.525Z,31.10
2018-06-29T14:53:51.064Z,31.10
2018-06-29T14:56:18.237Z,31.20
2018-06-29T14:58:45.405Z,31.00
2018-06-29T15:01:12.574Z,30.90
2018-06-29T15:03:39.746Z,30.80
2018-06-29T15:06:06.931Z,30.60
2018-06-29T15:08:34.121Z,30.50
2018-06-29T15:11:01.295Z,30.40
2018-06-29T15:13:28.503Z,30.30
2018-06-29T15:15:55.744Z,30.30
2018-06-29T15:18:22.873Z,30.40
2018-06-29T15:20:50.040Z,30.40
2018-06-29T15:23:17.202Z,30.50
2018-06-29T15:25:44.368Z,30.70
2018-06-29T15:28:11.545Z,30.50
2018-06-29T15:30:39.037Z,30.20
2018-06-29T15:33:06.224Z,30.00
2018-06-29T15:35:33.406Z,30.00
2018-06-29T15:38:00.596Z,30.00
2018-06-29T15:40:27.766Z,30.00
2018-06-29T15:42:54.925Z,30.00
2018-06-29T15:45:22.153Z,29.90
2018-06-29T15:47:49.301Z,29.80
2018-06-29T15:50:16.479Z,29.70
2018-06-29T15:52:44.431Z,29.80
2018-06-29T15:55:11.658Z,29.80
2018-06-29T15:57:38.805Z,29.80
2018-06-29T16:00:07.977Z,29.70
2018-06-29T16:02:35.158Z,29.60
2018-06-29T16:05:02.380Z,29.50
2018-06-29T16:07:29.533Z,29.40
2018-06-29T16:09:56.719Z,29.50
2018-06-29T16:12:23.894Z,29.40
2018-06-29T16:14:51.075Z,29.40
2018-06-29T16:17:18.254Z,29.40
2018-06-29T16:19:45.428Z,29.40
2018-06-29T16:22:12.621Z,29.50
2018-06-29T16:24:39.901Z,29.50
2018-06-29T16:29:34.349Z,29.40
2018-06-29T16:32:01.682Z,29.40
2018-06-29T16:34:28.877Z,29.40
2018-06-29T16:36:56.042Z,29.40
2018-06-29T16:39:23.220Z,29.30
2018-06-29T16:41:50.525Z,29.20
2018-06-29T16:44:17.704Z,29.10
2018-06-29T16:46:44.873Z,29.00
2018-06-29T16:49:12.085Z,29.00
2018-06-29T16:51:39.261Z,28.90
2018-06-29T16:54:06.419Z,28.90
2018-06-29T16:56:33.625Z,28.90
2018-06-29T16:59:00.800Z,28.80
2018-06-29T17:01:28.138Z,28.80
2018-06-29T17:03:55.309Z,28.80
2018-06-29T17:06:22.488Z,28.80
2018-06-29T17:11:16.845Z,28.80
2018-06-29T17:13:44.093Z,28.80
2018-06-29T17:16:11.477Z,28.70
2018-06-29T17:18:38.705Z,28.80
2018-06-29T17:21:05.882Z,28.70
2018-06-29T17:23:33.055Z,28.70
2018-06-29T17:26:00.239Z,28.60
2018-06-29T17:28:27.421Z,28.50
2018-06-29T17:30:54.614Z,28.50
2018-06-29T17:33:32.048Z,28.50
2018-06-29T17:35:49.009Z,28.40
2018-06-29T17:38:16.278Z,28.30
2018-06-29T17:40:43.478Z,28.30
2018-06-29T17:43:10.637Z,28.20
2018-06-29T17:45:37.957Z,28.20
2018-06-29T17:48:05.181Z,28.20
2018-06-29T17:50:32.377Z,28.20
2018-06-29T17:52:59.609Z,28.10
2018-06-29T17:55:26.907Z,28.10
2018-06-29T17:57:53.948Z,28.00
2018-06-29T18:00:21.100Z,27.90
2018-06-29T18:02:48.266Z,27.80
2018-06-29T18:05:15.475Z,27.80
2018-06-29T18:07:42.645Z,27.70
2018-06-29T18:10:09.841Z,27.70
2018-06-29T18:12:43.854Z,27.60
2018-06-29T18:15:11.023Z,27.60
2018-06-29T18:17:38.180Z,27.50
2018-06-29T18:20:05.433Z,27.50
2018-06-29T18:22:32.608Z,27.40
2018-06-29T18:24:59.769Z,27.40
2018-06-29T18:27:26.929Z,27.40
2018-06-29T18:29:54.098Z,27.30
2018-06-29T18:32:21.285Z,27.30
2018-06-29T18:34:48.460Z,27.30
2018-06-29T18:37:15.701Z,27.20
2018-06-29T18:39:42.877Z,27.20
2018-06-29T18:42:10.066Z,27.20
2018-06-29T18:44:37.244Z,27.10
2018-06-29T18:47:04.456Z,27.00
2018-06-29T18:49:31.689Z,27.00
2018-06-29T18:51:58.860Z,26.90
2018-06-29T18:54:26.031Z,26.90
2018-06-29T18:56:53.221Z,26.80
2018-06-29T18:59:20.414Z,26.80
2018-06-29T19:04:14.802Z,26.70
2018-06-29T19:06:41.948Z,26.70
2018-06-29T19:09:09.956Z,26.60
2018-06-29T19:11:37.520Z,26.50
2018-06-29T19:14:04.742Z,26.40
2018-06-29T19:16:31.911Z,26.40
2018-06-29T19:18:59.085Z,26.30
2018-06-29T19:21:26.232Z,26.20
2018-06-29T19:23:53.413Z,26.10
2018-06-29T19:26:20.595Z,26.10
2018-06-29T19:28:47.773Z,26.10
2018-06-29T19:31:15.031Z,26.00
2018-06-29T19:33:42.129Z,26.00
2018-06-29T19:38:36.521Z,25.90
2018-06-29T19:41:03.717Z,25.90
2018-06-29T19:45:58.137Z,25.70
2018-06-29T19:50:52.493Z,25.70
2018-06-29T19:53:19.669Z,25.60
2018-06-29T19:55:46.849Z,25.50
2018-06-29T19:58:14.004Z,25.50
2018-06-29T20:00:41.187Z,25.40
2018-06-29T20:03:08.346Z,25.40
2018-06-29T20:05:35.537Z,25.30
2018-06-29T20:08:02.730Z,25.30
2018-06-29T20:10:29.904Z,25.20
2018-06-29T20:12:57.713Z,25.20
2018-06-29T20:15:24.897Z,25.10
2018-06-29T20:17:52.093Z,25.00
2018-06-29T20:20:19.332Z,25.00
2018-06-29T20:22:46.465Z,25.00
2018-06-29T20:25:13.649Z,24.90
2018-06-29T20:30:08.341Z,24.80
2018-06-29T20:32:35.525Z,24.80
2018-06-29T20:35:02.743Z,24.80
2018-06-29T20:37:29.952Z,24.70
2018-06-29T20:39:57.149Z,24.70
2018-06-29T20:42:24.474Z,24.70
2018-06-29T20:44:51.632Z,24.60
2018-06-29T20:47:18.814Z,24.50
2018-06-29T20:49:45.969Z,24.50
2018-06-29T20:52:13.159Z,24.50
2018-06-29T20:54:40.364Z,24.50
2018-06-29T20:59:41.521Z,24.50
2018-06-29T21:02:08.700Z,24.40
2018-06-29T21:04:35.911Z,24.30
2018-06-29T21:07:03.121Z,24.20
2018-06-29T21:09:30.302Z,24.10
2018-06-29T21:11:57.473Z,24.10
2018-06-29T21:14:24.623Z,24.00
2018-06-29T21:16:51.812Z,24.00
2018-06-29T21:19:19.011Z,24.00
2018-06-29T21:21:46.188Z,24.00
2018-06-29T21:24:13.364Z,24.00
2018-06-29T21:26:40.652Z,24.00
2018-06-29T21:29:07.917Z,24.00
2018-06-29T21:31:42.010Z,24.00
2018-06-29T21:34:09.169Z,23.90
2018-06-29T21:36:36.364Z,23.80
2018-06-29T21:39:06.377Z,23.80
2018-06-29T21:41:33.582Z,23.80
2018-06-29T21:46:27.928Z,23.70
2018-06-29T21:48:55.097Z,23.70
2018-06-29T21:51:22.288Z,23.70
2018-06-29T21:53:49.461Z,23.70
2018-06-29T21:56:16.649Z,23.70
2018-06-29T22:01:11.917Z,23.60
2018-06-29T22:03:39.104Z,23.60
2018-06-29T22:06:06.300Z,23.60
2018-06-29T22:08:33.480Z,23.50
2018-06-29T22:11:00.640Z,23.50
2018-06-29T22:13:27.830Z,23.40
2018-06-29T22:15:54.981Z,23.40
2018-06-29T22:18:22.148Z,23.30
2018-06-29T22:20:49.325Z,23.30
2018-06-29T22:23:16.506Z,23.30
2018-06-29T22:25:43.742Z,23.30
2018-06-29T22:28:10.921Z,23.30
2018-06-29T22:30:38.096Z,23.30
2018-06-29T22:33:05.589Z,23.30
2018-06-29T22:35:32.773Z,23.30
2018-06-29T22:37:59.965Z,23.20
2018-06-29T22:40:27.210Z,23.20
2018-06-29T22:42:54.432Z,23.20
2018-06-29T22:45:21.617Z,23.20
2018-06-29T22:47:55.662Z,23.20
2018-06-29T22:50:22.853Z,23.20
2018-06-29T22:52:50.026Z,23.10
2018-06-29T22:55:17.201Z,23.20
2018-06-29T22:57:44.409Z,23.20
2018-06-29T23:00:11.650Z,23.20
2018-06-29T23:02:38.837Z,23.30
2018-06-29T23:05:06.129Z,23.20
2018-06-29T23:07:33.333Z,23.20
2018-06-29T23:10:00.729Z,23.30
2018-06-29T23:12:27.924Z,23.10
2018-06-29T23:14:55.114Z,23.10
2018-06-29T23:17:22.295Z,23.10
2018-06-29T23:19:49.468Z,23.10
2018-06-29T23:22:16.661Z,23.10
2018-06-29T23:24:43.845Z,23.00
2018-06-29T23:27:11.004Z,23.00
2018-06-29T23:29:38.209Z,22.90
2018-06-29T23:32:05.405Z,22.90
2018-06-29T23:37:06.566Z,22.90
2018-06-29T23:39:33.746Z,22.80
2018-06-29T23:42:00.977Z,22.80
2018-06-29T23:44:28.149Z,22.80
2018-06-29T23:46:55.320Z,22.70
2018-06-29T23:49:22.553Z,22.70
2018-06-29T23:51:49.773Z,22.70
2018-06-29T23:54:16.944Z,22.60
2018-06-29T23:56:44.169Z,22.60
2018-06-29T23:59:11.341Z,22.60
